Bonnots Mill, MO

10:26 AM CDT on August 30, 2014 (GMT -0500)
Ken Larr Hills @ The Ginter's | Change Station
CLOSE
Current Station
Personal Weather Station
Location: Holts Summit, MO
Elevation: 725 ft
Nearby Weather Stations

Elev 725 ft 38.60 °N, 92.05 °W | Updated 3 minutes ago

Mostly Cloudy
Mostly Cloudy
78.1 °F
Feels Like 81 °F
N
5.3
Wind Variable Wind from NNE

Today
High -- | Low -- °F
--% Chance of Precip.
Yesterday
High -- | Low -- °F
Precip. -- in
6:35 AM 7:40 PM
Waxing Crescent, 22% visible
Pressure 29.90 in
Visibility 10.0 miles
Clouds Clear
Heat Index 81 °F
Dew Point 72 °F
Humidity 81%
Rainfall 0.00 in
Snow Depth Not available.
UV 5 out of 12
Pollen 8.30 out of 12
Air Quality Not available.
Flu Activity Not available.
METAR KJEF 301453Z 21006KT 10SM CLR 25/21 A2994 RMK AO2 SLP125 T02500206 51006

More Conditions Fewer Conditions

Pressure 29.90 in
Visibility 10.0 miles
Clouds Clear
Heat Index 81 °F
Dew Point 72 °F
Humidity 81%
Rainfall 0.00 in
Snow Depth Not available.
UV 5 out of 12
Pollen 8.30 out of 12
Air Quality Not available.
Flu Activity Not available.
METAR KJEF 301453Z 21006KT 10SM CLR 25/21 A2994 RMK AO2 SLP125 T02500206 51006

More Conditions Fewer Conditions

10-Day Weather Forecast

Almanac

Astronomy

Aug. 30, 2014 Rise Set
Actual Time 6:35 AM CDT 7:40 PM CDT
Civil Twilight 6:07 AM CDT 8:07 PM CDT
Nautical Twilight 5:35 AM CDT 8:40 PM CDT
Astronomical Twilight 5:01 AM CDT 9:14 PM CDT
Moon 11:19 AM CDT 10:19 PM CDT
Length of Visible Light 13h 59m
Length of Day
13h 05m
Tomorrow will be 2m 22s shorter.
Waxing Crescent, 22% of the Moon is Illuminated
Today
Waxing Crescent
Sep 2
First Quarter
Sep 8
Full
Sep 15
Last Quarter
Sep 24
New

Today's Extremes

State Highs State Lows

Community

WunderPhotos

Upload Photos

1,748,548 photos uploaded!

WunderBlogs® & News

Nearby

Snow Depth

Station Depth Elevation
No new snow has been reported.

Earthquake Activity

City Distance Mag. Time & Date
No recent earthquake activity has been reported nearby.
Minimum magnitude displayed is 2.5.

Coastal Water Temperatures

Place Temperature
No Stations Reporting

Nearby Weather Stations